Home > Products > Valid Products > TAF

000
FTUS42 KILM 211700
TAFCRE
TAF
KCRE 211725Z 2118/2218 31007KT P6SM SKC
     FM220300 31011G15KT P6SM SKC
     FM221100 34011G17KT P6SM SKC=



000
FTUS42 KILM 211700
TAFLBT
TAF
KLBT 211725Z 2118/2218 27007KT P6SM SKC
     FM220200 33009G15KT P6SM FEW060
     FM221500 33012KT P6SM SKC=



000
FTUS42 KILM 211700
TAFILM
TAF
KILM 211725Z 2118/2218 29007KT P6SM SKC
     FM212300 23009KT P6SM SKC
     FM220500 30011G15KT P6SM SKC
     FM221100 33012G18KT P6SM SKC=



000
FTUS42 KILM 211700
TAFFLO
TAF
KFLO 211725Z 2118/2218 28007KT P6SM SKC
     FM220300 34010G15KT P6SM FEW060
     FM221400 35011KT P6SM SKC=



000
FTUS42 KILM 211700
TAFMYR
TAF
KMYR 211725Z 2118/2218 30008KT P6SM SKC
     FM220300 34010G15KT P6SM SKC
     FM221100 33012G18KT P6SM SKC=



000
FTUS42 KILM 211100 CCA
TAFFLO
TAF COR
KFLO 211129Z 2112/2212 VRB02KT 2SM BR SCT002
     FM211300 28007KT P6SM SKC
     FM220300 34010KT P6SM SCT060=



000
FTUS42 KILM 211100 CCA
TAFFLO
TAF COR
KFLO 211129Z 2112/2212 VRB02KT 2SM BR SCT002
     FM211300 28007KT P6SM SKC
     FM220300 34010KT P6SM SCT060=



000
FTUS42 KILM 211100 CCA
TAFLBT
TAF COR
KLBT 211124Z 2112/2212 VRB03KT 2SM BR BKN002
     FM211300 28007KT P6SM SKC
     FM220200 33009KT P6SM FEW060=



000
FTUS42 KILM 211100 CCA
TAFLBT
TAF COR
KLBT 211124Z 2112/2212 VRB03KT 2SM BR BKN002
     FM211300 28007KT P6SM SKC
     FM220200 33009KT P6SM FEW060=



000
FTUS42 KILM 211100
TAFMYR
TAF
KMYR 211120Z 2112/2212 28006KT P6SM FEW050
     FM211800 24007G14KT P6SM SKC
     FM220300 34010KT P6SM SKC=



000
FTUS42 KILM 211100
TAFLBT
TAF
KLBT 211120Z 2112/2212 VRB03KT 2SM BR SCT002
     FM211300 28007KT P6SM SKC
     FM220200 33009KT P6SM FEW060=



000
FTUS42 KILM 211100
TAFCRE
TAF
KCRE 211120Z 2112/2212 29006KT P6SM FEW050
     FM211800 24007G14KT P6SM SKC
     FM220300 31010KT P6SM SKC=



000
FTUS42 KILM 211100
TAFILM
TAF
KILM 211120Z 2112/2212 VRB03KT P6SM FEW050 SCT090
     FM211500 26007KT P6SM SCT050
     FM212100 23009KT P6SM SKC
     FM220500 31011KT P6SM SKC=



000
FTUS42 KILM 211100
TAFFLO
TAF
KFLO 211120Z 2112/2212 28007KT P6SM SKC
     FM220300 34010KT P6SM SCT060=



000
FTUS42 KILM 211100
TAFCRE
TAF
KCRE 211120Z 2112/2212 29006KT P6SM FEW050
     FM211800 24007G14KT P6SM SKC
     FM220300 31010KT P6SM SKC=



000
FTUS42 KILM 211100
TAFFLO
TAF
KFLO 211120Z 2112/2212 28007KT P6SM SKC
     FM220300 34010KT P6SM SCT060=



000
FTUS42 KILM 211100
TAFMYR
TAF
KMYR 211120Z 2112/2212 28006KT P6SM FEW050
     FM211800 24007G14KT P6SM SKC
     FM220300 34010KT P6SM SKC=



000
FTUS42 KILM 211100
TAFLBT
TAF
KLBT 211120Z 2112/2212 VRB03KT 2SM BR SCT002
     FM211300 28007KT P6SM SKC
     FM220200 33009KT P6SM FEW060=



000
FTUS42 KILM 211100
TAFILM
TAF
KILM 211120Z 2112/2212 VRB03KT P6SM FEW050 SCT090
     FM211500 26007KT P6SM SCT050
     FM212100 23009KT P6SM SKC
     FM220500 31011KT P6SM SKC=



000
FTUS42 KILM 211000 AAA
TAFLBT
TAF AMD
KLBT 211029Z 2110/2206 VRB03KT P6SM SCT090
      TEMPO 2110/2112 3SM BR BKN002
     FM211300 28007KT P6SM FEW060
     FM220200 33009G15KT P6SM SCT060=



000
FTUS42 KILM 211000 AAA
TAFLBT
TAF AMD
KLBT 211029Z 2110/2206 VRB03KT P6SM SCT090
      TEMPO 2110/2112 3SM BR BKN002
     FM211300 28007KT P6SM FEW060
     FM220200 33009G15KT P6SM SCT060=



000
FTUS42 KILM 210900 AAA
TAFFLO
TAF AMD
KFLO 210928Z 2109/2206 VRB02KT P6SM SCT040
      TEMPO 2109/2112 2SM BR
     FM211300 28007KT P6SM FEW060
     FM220300 34009G15KT P6SM SCT060=



000
FTUS42 KILM 210800 AAA
TAFCRE
TAF AMD
KCRE 210849Z 2109/2206 VRB02KT P6SM VCSH SCT090
      TEMPO 2109/2112 3SM BR
     FM211400 29006KT P6SM FEW050
     FM211800 24007G14KT P6SM SKC
     FM220300 34009G15KT P6SM SKC=



000
FTUS42 KILM 210500
TAFCRE
TAF
KCRE 210539Z 2106/2206 VRB02KT P6SM VCSH SCT090
     FM211400 29006KT P6SM FEW050
     FM211800 24007G14KT P6SM SKC
     FM220300 34009G15KT P6SM SKC=



000
FTUS42 KILM 210500
TAFFLO
TAF
KFLO 210539Z 2106/2206 VRB02KT P6SM SCT040
     FM211300 28007KT P6SM FEW060
     FM220300 34009G15KT P6SM SCT060=



000
FTUS42 KILM 210500
TAFILM
TAF
KILM 210539Z 2106/2206 VRB03KT P6SM SCT090 BKN170
     FM211400 29007KT P6SM SCT050
     FM212100 24009KT P6SM SKC
     FM220400 33011KT P6SM SKC=



000
FTUS42 KILM 210500
TAFMYR
TAF
KMYR 210539Z 2106/2206 VRB02KT P6SM VCSH SCT090
     FM211400 29006KT P6SM FEW050
     FM211800 24007G14KT P6SM SKC
     FM220300 34009G15KT P6SM SKC
      AMD LTD TO CLD VIS AND WIND TIL 211100=



000
FTUS42 KILM 210500
TAFLBT
TAF
KLBT 210539Z 2106/2206 VRB03KT P6SM SCT090
     FM211300 28007KT P6SM FEW060
     FM220200 33009G15KT P6SM SCT060=



000
FTUS42 KILM 210300 AAB
TAFCRE
TAF AMD
KCRE 210355Z 2104/2124 00000KT P6SM SKC
      TEMPO 2104/2106 2SM BR SCT070
     FM210600 VRB02KT P6SM VCSH SCT040
     FM211400 33006KT P6SM FEW040=



000
FTUS42 KILM 210300 AAB
TAFCRE
TAF AMD
KCRE 210355Z 2104/2124 00000KT P6SM SKC
      TEMPO 2104/2106 2SM BR SCT070
     FM210600 VRB02KT P6SM VCSH SCT040
     FM211400 33006KT P6SM FEW040=



000
FTUS42 KILM 210300 AAA
TAFCRE
TAF AMD
KCRE 210316Z 2103/2124 VRB03KT 4SM BR BKN050
      TEMPO 2103/2105 1SM BR SCT050
     FM210600 VRB02KT P6SM VCSH SCT040
     FM211400 33006KT P6SM FEW040=



000
FTUS42 KILM 202300
TAFILM
TAF
KILM 202320Z 2100/2124 VRB03KT P6SM SCT050
     FM210600 VRB02KT P6SM VCSH SCT040
     FM211300 32006KT P6SM FEW040=



000
FTUS42 KILM 202300
TAFCRE
TAF
KCRE 202320Z 2100/2124 VRB03KT P6SM BKN040
     FM210600 VRB02KT P6SM VCSH SCT040
     FM211400 33006KT P6SM FEW040=



000
FTUS42 KILM 202300
TAFLBT
TAF
KLBT 202320Z 2100/2124 22003KT P6SM BKN040
     FM210600 VRB01KT P6SM SCT040
     FM211300 30003KT P6SM SKC=



000
FTUS42 KILM 202300
TAFFLO
TAF
KFLO 202320Z 2100/2124 21003KT P6SM BKN040
     FM210600 VRB02KT P6SM SCT040
     FM211300 32004KT P6SM SKC=



000
FTUS42 KILM 202300
TAFMYR
TAF
KMYR 202320Z 2100/2124 VRB03KT P6SM BKN040
     FM210600 VRB02KT P6SM VCSH SCT040
     FM211400 32008KT P6SM FEW040
      AMD LTD TO CLD VIS AND WIND 2104/2111=



000
FTUS42 KILM 201700
TAFILM
TAF
KILM 201727Z 2018/2118 17007KT P6SM FEW040
     FM202300 VRB03KT P6SM SCT040
     FM210600 VRB02KT P6SM VCSH SCT040
     FM211300 32006KT P6SM FEW040=



000
FTUS42 KILM 201700
TAFLBT
TAF
KLBT 201727Z 2018/2118 21006KT P6SM FEW040
     FM202300 22003KT P6SM BKN040
     FM210600 VRB01KT P6SM SCT040
     FM211300 30003KT P6SM SKC=



000
FTUS42 KILM 201700
TAFFLO
TAF
KFLO 201727Z 2018/2118 19006KT P6SM FEW040
     FM202300 21003KT P6SM BKN040
     FM210600 VRB02KT P6SM SCT040
     FM211300 32004KT P6SM SKC=



000
FTUS42 KILM 201700
TAFMYR
TAF
KMYR 201727Z 2018/2118 14006KT P6SM SCT040
     FM210000 VRB03KT P6SM BKN040
     FM210600 VRB02KT P6SM VCSH SCT040
     FM211400 32008KT P6SM FEW040=



000
FTUS42 KILM 201700
TAFCRE
TAF
KCRE 201727Z 2018/2118 14006KT P6SM SCT040
     FM202200 VRB03KT P6SM BKN040
     FM210600 VRB02KT P6SM VCSH SCT040
     FM211400 33006KT P6SM FEW040=



000
FTUS42 KILM 201100
TAFLBT
TAF
KLBT 201120Z 2012/2112 VRB03KT P6SM SKC
     FM201500 19006KT P6SM FEW040
     FM202300 22003KT P6SM BKN040
     FM210600 VRB01KT P6SM SCT040=



000
FTUS42 KILM 201100
TAFCRE
TAF
KCRE 201120Z 2012/2112 VRB04KT P6SM SKC
     FM201600 16006KT P6SM SCT040
     FM202200 VRB03KT P6SM BKN040
     FM210400 VRB02KT P6SM VCSH SCT040=



000
FTUS42 KILM 201100
TAFFLO
TAF
KFLO 201120Z 2012/2112 VRB03KT P6SM SKC
     FM201500 20006KT P6SM FEW040
     FM202300 21003KT P6SM BKN040
     FM210600 VRB02KT P6SM SCT040=



000
FTUS42 KILM 201100
TAFMYR
TAF
KMYR 201120Z 2012/2112 VRB03KT P6SM SKC
     FM201600 14006KT P6SM SCT040
     FM210000 VRB03KT P6SM BKN040
     FM210400 VRB02KT P6SM VCSH SCT040=



000
FTUS42 KILM 201100
TAFILM
TAF
KILM 201120Z 2012/2112 VRB03KT P6SM SKC
     FM201600 18007KT P6SM FEW040
     FM202300 VRB03KT P6SM SCT040
     FM210500 VRB02KT P6SM VCSH SCT040=



000
FTUS42 KILM 200500
TAFLBT
TAF
KLBT 200520Z 2006/2106 VRB03KT P6SM SKC
     FM201500 19006KT P6SM SCT040
     FM202300 VRB03KT P6SM BKN040=



000
FTUS42 KILM 200500
TAFILM
TAF
KILM 200520Z 2006/2106 VRB03KT P6SM SKC
     FM201500 17007KT P6SM SCT040
     FM202300 VRB03KT P6SM BKN040=



000
FTUS42 KILM 200500
TAFFLO
TAF
KFLO 200520Z 2006/2106 VRB03KT P6SM SKC
     FM201500 20006KT P6SM SCT040
     FM202300 VRB03KT P6SM BKN040=



000
FTUS42 KILM 200500
TAFCRE
TAF
KCRE 200520Z 2006/2106 VRB03KT P6SM SKC
     FM201400 16006KT P6SM SCT040
     FM202200 VRB03KT P6SM BKN040=



000
FTUS42 KILM 200500
TAFMYR
TAF
KMYR 200520Z 2006/2106 VRB03KT P6SM SKC
     FM201500 14006KT P6SM FEW040
     FM210000 VRB03KT P6SM BKN040
      AMD LTD TO CLD VIS AND WIND TIL 201100=



000
FTUS42 KILM 192300
TAFCRE
TAF
KCRE 192320Z 2000/2024 VRB03KT P6SM SKC
     FM201400 16006KT P6SM SCT040=



000
FTUS42 KILM 192300
TAFLBT
TAF
KLBT 192320Z 2000/2024 VRB03KT P6SM SKC
     FM201500 19006KT P6SM SCT040=



000
FTUS42 KILM 192300
TAFFLO
TAF
KFLO 192320Z 2000/2024 VRB03KT P6SM SKC
     FM201500 20006KT P6SM SCT040=



000
FTUS42 KILM 192300
TAFILM
TAF
KILM 192320Z 2000/2024 VRB03KT P6SM SKC
     FM201500 17007KT P6SM SCT040=



000
FTUS42 KILM 192300
TAFMYR
TAF
KMYR 192320Z 2000/2024 VRB03KT P6SM SKC
     FM201500 14006KT P6SM FEW040
      AMD LTD TO CLD VIS AND WIND 2004/2011=



000
FTUS42 KILM 192300
TAFLBT
TAF
KLBT 192320Z 2000/2024 VRB03KT P6SM SKC
     FM201500 19006KT P6SM SCT040=



000
FTUS42 KILM 192300
TAFMYR
TAF
KMYR 192320Z 2000/2024 VRB03KT P6SM SKC
     FM201500 14006KT P6SM FEW040
      AMD LTD TO CLD VIS AND WIND 2004/2011=



000
FTUS42 KILM 192300
TAFCRE
TAF
KCRE 192320Z 2000/2024 VRB03KT P6SM SKC
     FM201400 16006KT P6SM SCT040=



000
FTUS42 KILM 192300
TAFILM
TAF
KILM 192320Z 2000/2024 VRB03KT P6SM SKC
     FM201500 17007KT P6SM SCT040=



000
FTUS42 KILM 192300
TAFFLO
TAF
KFLO 192320Z 2000/2024 VRB03KT P6SM SKC
     FM201500 20006KT P6SM SCT040=



000
FTUS42 KILM 191700
TAFFLO
TAF
KFLO 191720Z 1918/2018 36008KT P6SM SKC
     FM192300 VRB03KT P6SM SKC=



000
FTUS42 KILM 191700
TAFCRE
TAF
KCRE 191720Z 1918/2018 36009KT P6SM SKC
     FM192300 VRB03KT P6SM SKC
     FM201500 15005KT P6SM FEW040=



000
FTUS42 KILM 191700
TAFMYR
TAF
KMYR 191720Z 1918/2018 35011KT P6SM SKC
     FM192300 VRB03KT P6SM SKC
     FM201500 14006KT P6SM FEW040=



000
FTUS42 KILM 191700
TAFILM
TAF
KILM 191720Z 1918/2018 34010KT P6SM SKC
     FM192300 VRB03KT P6SM SKC
     FM201500 16005KT P6SM FEW040=



000
FTUS42 KILM 191700
TAFLBT
TAF
KLBT 191720Z 1918/2018 34009KT P6SM SKC
     FM192300 VRB03KT P6SM SKC=



000
FTUS42 KILM 191100
TAFMYR
TAF
KMYR 191120Z 1912/2012 34009KT P6SM SKC
     FM191300 35012G18KT P6SM SKC
     FM192300 VRB03KT P6SM SKC=



000
FTUS42 KILM 191100
TAFLBT
TAF
KLBT 191120Z 1912/2012 34009KT P6SM SKC
     FM192300 VRB02KT P6SM SKC=



000
FTUS42 KILM 191100
TAFILM
TAF
KILM 191120Z 1912/2012 33006KT P6SM SKC
     FM191400 34011G17KT P6SM SKC
     FM192300 VRB02KT P6SM SKC=



000
FTUS42 KILM 191100
TAFCRE
TAF
KCRE 191120Z 1912/2012 35007KT P6SM SKC
     FM191400 36010G16KT P6SM SKC
     FM192300 VRB02KT P6SM SKC=



000
FTUS42 KILM 191100
TAFFLO
TAF
KFLO 191120Z 1912/2012 35009KT P6SM SKC
     FM192300 VRB02KT P6SM SKC=



000
FTUS42 KILM 190500
TAFMYR
TAF
KMYR 190537Z 1906/2006 35010KT P6SM SCT070 OVC080
     FM190800 35008KT P6SM FEW080
     FM191300 36012G20KT P6SM SKC
     FM191800 03010KT P6SM SKC
     FM200100 VRB03KT P6SM SKC
      AMD LTD TO CLD VIS AND WIND TIL 191100=



000
FTUS42 KILM 190500
TAFILM
TAF
KILM 190537Z 1906/2006 34009KT P6SM SCT060 BKN090
     FM191300 36012G19KT P6SM SKC
     FM191800 35008KT P6SM SKC
     FM192300 VRB03KT P6SM SKC=



000
FTUS42 KILM 190500
TAFLBT
TAF
KLBT 190537Z 1906/2006 35006KT P6SM BKN070 OVC100
     FM191300 36010G19KT P6SM SKC
     FM191600 35007KT P6SM SKC
     FM192200 VRB03KT P6SM SKC=



000
FTUS42 KILM 190500
TAFFLO
TAF
KFLO 190537Z 1906/2006 34005KT P6SM BKN070 OVC090
     FM191300 01010G19KT P6SM SKC
     FM191600 01007KT P6SM SKC
     FM192200 VRB03KT P6SM SKC=



000
FTUS42 KILM 190500
TAFCRE
TAF
KCRE 190537Z 1906/2006 36005KT P6SM FEW060 BKN080
     FM190800 35005KT P6SM FEW080
     FM191300 01010G17KT P6SM SKC
     FM191800 02007KT P6SM SKC
     FM192300 VRB03KT P6SM SKC=



000
FTUS42 KILM 190200 AAA
TAFILM
TAF AMD
KILM 190250Z 1903/1924 36010G18KT P6SM BKN060
     FM190700 34007KT P6SM FEW080
     FM191300 36012G19KT P6SM SKC
     FM191800 35008KT P6SM SKC=



000
FTUS42 KILM 182300
TAFILM
TAF
KILM 182331Z 1900/1924 25004KT P6SM SKC
     FM190200 34009KT P6SM BKN060
     FM190700 34007KT P6SM FEW080
     FM191300 36012G19KT P6SM SKC
     FM191800 35008KT P6SM SKC=



000
FTUS42 KILM 182300
TAFCRE
TAF
KCRE 182331Z 1900/1924 24004KT P6SM SKC
     FM190300 35008KT P6SM BKN060
     FM190800 35005KT P6SM FEW080
     FM191300 01010G17KT P6SM SKC
     FM191800 02007KT P6SM SKC=



000
FTUS42 KILM 182300
TAFMYR
TAF
KMYR 182331Z 1900/1924 24005KT P6SM SKC
     FM190300 35010KT P6SM BKN060
     FM190800 35008KT P6SM FEW080
     FM191300 36012G20KT P6SM SKC
     FM191800 03010KT P6SM SKC
      AMD LTD TO CLD VIS AND WIND 1904/1911=



000
FTUS42 KILM 182300
TAFLBT
TAF
KLBT 182331Z 1900/1924 30005KT P6SM SKC
     FM190100 34009KT P6SM BKN060
     FM190500 34005KT P6SM FEW080
     FM191300 36010G19KT P6SM SKC
     FM191600 35007KT P6SM SKC=



000
FTUS42 KILM 182300
TAFFLO
TAF
KFLO 182331Z 1900/1924 30005KT P6SM SKC
     FM190100 35009KT P6SM BKN060
     FM190500 35006KT P6SM FEW080
     FM191300 01010G19KT P6SM SKC
     FM191600 01007KT P6SM SKC=



    US Dept of Commerce
    National Oceanic and Atmospheric Administration
    National Weather Service
    1325 East West Highway
    Silver Spring, MD 20910
    Page Author: NWS Internet Services Team
Disclaimer
Information Quality
Credits
Glossary
Privacy Policy
Freedom of Information Act (FOIA)
About Us
Career Opportunities